createdAt,value
2018-08-28T00:00:15.910Z,17.62
2018-08-28T00:02:45.237Z,17.61
2018-08-28T00:05:14.522Z,17.63
2018-08-28T00:07:43.849Z,17.67
2018-08-28T00:10:13.994Z,17.73
2018-08-28T00:12:43.361Z,17.79
2018-08-28T00:15:12.760Z,17.73
2018-08-28T00:17:43.105Z,17.64
2018-08-28T00:20:12.438Z,17.70
2018-08-28T00:22:41.761Z,17.70
2018-08-28T00:25:11.128Z,17.68
2018-08-28T00:27:40.595Z,17.69
2018-08-28T00:30:10.045Z,17.71
2018-08-28T00:32:39.501Z,17.60
2018-08-28T00:35:08.845Z,17.68
2018-08-28T00:37:38.205Z,17.67
2018-08-28T00:40:07.491Z,17.66
2018-08-28T00:45:24.384Z,17.64
2018-08-28T00:47:53.742Z,17.58
2018-08-28T00:50:25.371Z,17.58
2018-08-28T00:52:55.494Z,17.64
2018-08-28T00:55:24.920Z,17.62
2018-08-28T00:57:54.334Z,17.67
2018-08-28T01:00:23.742Z,17.73
2018-08-28T01:02:53.066Z,17.69
2018-08-28T01:05:23.845Z,17.67
2018-08-28T01:07:53.857Z,17.69
2018-08-28T01:10:23.177Z,17.72
2018-08-28T01:12:52.515Z,17.67
2018-08-28T01:15:21.815Z,17.58
2018-08-28T01:17:51.154Z,17.61
2018-08-28T01:20:20.486Z,17.56
2018-08-28T01:22:49.782Z,17.39
2018-08-28T01:25:19.122Z,17.60
2018-08-28T01:27:48.443Z,17.55
2018-08-28T01:30:21.889Z,17.48
2018-08-28T01:32:52.404Z,17.42
2018-08-28T01:35:21.718Z,17.38
2018-08-28T01:37:51.031Z,17.33
2018-08-28T01:40:20.351Z,17.35
2018-08-28T01:42:49.689Z,17.24
2018-08-28T01:45:19.333Z,17.31
2018-08-28T01:47:48.662Z,17.20
2018-08-28T01:50:18.050Z,17.42
2018-08-28T01:52:47.877Z,17.45
2018-08-28T01:55:17.222Z,17.41
2018-08-28T01:57:46.528Z,17.38
2018-08-28T02:00:15.861Z,17.40
2018-08-28T02:02:45.214Z,17.45
2018-08-28T02:05:14.553Z,17.39
2018-08-28T02:07:45.214Z,17.47
2018-08-28T02:10:14.561Z,17.48
2018-08-28T02:12:43.889Z,17.52
2018-08-28T02:15:13.225Z,17.40
2018-08-28T02:17:43.506Z,17.47
2018-08-28T02:20:12.838Z,17.53
2018-08-28T02:22:43.102Z,17.51
2018-08-28T02:25:12.457Z,17.52
2018-08-28T02:27:41.648Z,17.57
2018-08-28T02:30:10.869Z,17.55
2018-08-28T02:32:40.092Z,17.56
2018-08-28T02:35:09.315Z,17.53
2018-08-28T02:37:38.543Z,17.53
2018-08-28T02:40:07.817Z,17.42
2018-08-28T02:42:37.028Z,17.50
2018-08-28T02:45:06.676Z,17.53
2018-08-28T02:47:35.895Z,17.55
2018-08-28T02:50:05.790Z,17.53
2018-08-28T02:52:35.532Z,17.51
2018-08-28T02:55:04.836Z,17.49
2018-08-28T02:57:34.937Z,17.47
2018-08-28T03:00:04.192Z,17.37
2018-08-28T03:02:33.460Z,17.40
2018-08-28T03:05:02.673Z,17.42
2018-08-28T03:07:34.059Z,17.45
2018-08-28T03:10:04.030Z,17.41
2018-08-28T03:12:33.253Z,17.42
2018-08-28T03:15:02.425Z,17.47
2018-08-28T03:17:31.690Z,17.45
2018-08-28T03:20:00.978Z,17.50
2018-08-28T03:22:30.320Z,17.51
2018-08-28T03:24:59.544Z,17.43
2018-08-28T03:27:28.795Z,17.47
2018-08-28T03:29:58.004Z,17.48
2018-08-28T03:32:27.244Z,17.45
2018-08-28T03:34:56.459Z,17.47
2018-08-28T03:37:25.683Z,17.45
2018-08-28T03:39:54.942Z,17.46
2018-08-28T03:42:24.248Z,17.45
2018-08-28T03:44:53.550Z,17.44
2018-08-28T03:47:22.734Z,17.39
2018-08-28T03:49:51.950Z,17.45
2018-08-28T03:52:21.244Z,17.44
2018-08-28T03:54:50.459Z,17.44
2018-08-28T03:57:19.659Z,17.41
2018-08-28T03:59:48.888Z,17.40
2018-08-28T04:02:19.336Z,17.33
2018-08-28T04:04:48.592Z,17.31
2018-08-28T04:07:18.490Z,17.29
2018-08-28T04:09:47.699Z,17.17
2018-08-28T04:12:16.931Z,17.27
2018-08-28T04:14:46.506Z,17.34
2018-08-28T04:17:15.936Z,17.36
2018-08-28T04:19:45.178Z,17.38
2018-08-28T04:22:15.325Z,17.31
2018-08-28T04:24:44.804Z,17.32
2018-08-28T04:27:14.056Z,17.29
2018-08-28T04:29:43.295Z,17.28
2018-08-28T04:32:12.483Z,17.22
2018-08-28T04:34:41.781Z,17.29
2018-08-28T04:37:10.989Z,17.24
2018-08-28T04:39:40.259Z,17.26
2018-08-28T04:42:09.480Z,17.28
2018-08-28T04:44:38.676Z,17.28
2018-08-28T04:47:07.959Z,17.26
2018-08-28T04:49:37.151Z,17.14
2018-08-28T04:52:06.383Z,17.21
2018-08-28T04:54:35.597Z,17.25
2018-08-28T04:57:04.928Z,17.23
2018-08-28T04:59:34.189Z,17.26
2018-08-28T05:02:04.046Z,17.22
2018-08-28T05:04:33.271Z,17.24
2018-08-28T05:07:02.535Z,17.26
2018-08-28T05:09:31.745Z,17.26
2018-08-28T05:12:01.991Z,17.26
2018-08-28T05:14:31.215Z,17.26
2018-08-28T05:17:00.486Z,17.27
2018-08-28T05:19:29.716Z,17.28
2018-08-28T05:22:01.139Z,17.27
2018-08-28T05:24:30.395Z,17.25
2018-08-28T05:26:59.599Z,17.26
2018-08-28T05:29:28.817Z,17.24
2018-08-28T05:31:58.077Z,17.27
2018-08-28T05:34:27.307Z,17.25
2018-08-28T05:36:56.588Z,17.23
2018-08-28T05:39:25.800Z,17.27
2018-08-28T05:41:55.032Z,17.23
2018-08-28T05:44:25.196Z,17.29
2018-08-28T05:46:54.485Z,17.28
2018-08-28T05:49:23.770Z,17.29
2018-08-28T05:51:52.979Z,17.29
2018-08-28T05:54:22.211Z,17.32
2018-08-28T05:56:52.639Z,17.34
2018-08-28T05:59:21.928Z,17.35
2018-08-28T06:01:51.123Z,17.32
2018-08-28T06:04:20.348Z,17.33
2018-08-28T06:06:49.563Z,17.24
2018-08-28T06:09:19.252Z,17.33
2018-08-28T06:11:48.470Z,17.31
2018-08-28T06:14:18.231Z,17.37
2018-08-28T06:16:47.652Z,17.34
2018-08-28T06:19:17.189Z,17.37
2018-08-28T06:21:46.526Z,17.22
2018-08-28T06:24:15.755Z,17.17
2018-08-28T06:26:44.956Z,17.21
2018-08-28T06:29:14.179Z,17.31
2018-08-28T06:33:21.840Z,17.37
2018-08-28T06:35:51.099Z,17.40
2018-08-28T06:38:20.309Z,17.47
2018-08-28T06:40:49.630Z,17.45
2018-08-28T06:43:19.609Z,17.47
2018-08-28T06:45:48.787Z,17.39
2018-08-28T06:48:18.021Z,17.50
2018-08-28T06:50:49.103Z,17.55
2018-08-28T06:53:18.299Z,17.46
2018-08-28T06:55:47.526Z,17.41
2018-08-28T06:58:16.935Z,17.50
2018-08-28T07:00:46.171Z,17.60
2018-08-28T07:03:15.422Z,17.70
2018-08-28T07:05:44.599Z,17.71
2018-08-28T07:08:13.886Z,17.74
2018-08-28T07:10:43.164Z,17.70
2018-08-28T07:13:13.987Z,17.58
2018-08-28T07:15:43.249Z,17.75
2018-08-28T07:18:12.458Z,17.64
2018-08-28T07:20:41.691Z,17.56
2018-08-28T07:23:11.467Z,17.77
2018-08-28T07:25:40.799Z,17.63
2018-08-28T07:28:09.964Z,17.74
2018-08-28T07:30:39.178Z,17.61
2018-08-28T07:33:08.918Z,17.69
2018-08-28T07:35:38.192Z,17.92
2018-08-28T07:38:07.428Z,18.05
2018-08-28T07:40:36.615Z,18.10
2018-08-28T07:43:05.876Z,18.22
2018-08-28T07:45:35.098Z,18.23
2018-08-28T07:48:04.349Z,18.30
2018-08-28T07:50:33.529Z,18.40
2018-08-28T07:53:02.817Z,18.49
2018-08-28T07:55:32.016Z,18.51
2018-08-28T07:58:01.857Z,18.59
2018-08-28T08:00:31.073Z,18.52
2018-08-28T08:03:00.237Z,18.58
2018-08-28T08:05:29.511Z,18.63
2018-08-28T08:07:58.727Z,18.49
2018-08-28T08:10:27.949Z,18.68
2018-08-28T08:12:57.173Z,18.89
2018-08-28T08:15:26.420Z,18.84
2018-08-28T08:17:55.644Z,18.91
2018-08-28T08:20:24.880Z,18.92
2018-08-28T08:22:54.090Z,18.91
2018-08-28T08:25:23.349Z,18.97
2018-08-28T08:27:52.541Z,18.88
2018-08-28T08:30:21.752Z,19.12
2018-08-28T08:32:51.115Z,19.26
2018-08-28T08:35:20.409Z,19.28
2018-08-28T08:37:49.951Z,19.28
2018-08-28T08:40:19.167Z,19.36
2018-08-28T08:42:48.321Z,19.47
2018-08-28T08:45:17.648Z,19.60
2018-08-28T08:47:46.872Z,19.66
2018-08-28T08:50:16.071Z,19.86
2018-08-28T08:52:45.571Z,19.97
2018-08-28T08:55:14.761Z,20.07
2018-08-28T08:57:44.987Z,20.09
2018-08-28T09:00:14.188Z,20.11
2018-08-28T09:02:43.409Z,20.23
2018-08-28T09:05:12.642Z,20.40
2018-08-28T09:07:41.865Z,20.48
2018-08-28T09:10:11.080Z,20.40
2018-08-28T09:12:40.279Z,20.63
2018-08-28T09:15:09.510Z,20.85
2018-08-28T09:17:39.258Z,20.95
2018-08-28T09:20:08.445Z,20.98
2018-08-28T09:22:37.897Z,21.04
2018-08-28T09:25:07.123Z,21.18
2018-08-28T09:27:36.469Z,21.48
2018-08-28T09:30:06.000Z,21.80
2018-08-28T09:32:35.160Z,21.85
2018-08-28T09:35:04.503Z,22.06
2018-08-28T09:37:34.055Z,22.19
2018-08-28T09:40:03.975Z,22.18
2018-08-28T09:42:33.200Z,22.27
2018-08-28T09:45:02.380Z,22.40
2018-08-28T09:47:31.610Z,22.47
2018-08-28T09:50:00.881Z,22.32
2018-08-28T09:52:30.098Z,22.38
2018-08-28T09:54:59.309Z,22.13
2018-08-28T09:57:28.527Z,22.53
2018-08-28T09:59:57.743Z,22.57
2018-08-28T10:02:26.991Z,22.51
2018-08-28T10:04:56.341Z,22.69
2018-08-28T10:07:25.437Z,22.59
2018-08-28T10:09:54.640Z,22.55
2018-08-28T10:12:23.843Z,22.38
2018-08-28T10:14:53.055Z,22.30
2018-08-28T10:17:22.802Z,22.35
2018-08-28T10:19:51.980Z,22.76
2018-08-28T10:22:21.206Z,22.99
2018-08-28T10:24:50.423Z,22.90
2018-08-28T10:27:19.649Z,22.95
2018-08-28T10:29:48.900Z,22.73
2018-08-28T10:32:18.078Z,22.75
2018-08-28T10:34:48.335Z,22.64
2018-08-28T10:37:17.553Z,22.72
2018-08-28T10:39:46.945Z,22.45
2018-08-28T10:42:16.229Z,22.65
2018-08-28T10:44:45.463Z,22.33
2018-08-28T10:47:15.380Z,22.58
2018-08-28T10:49:44.622Z,22.81
2018-08-28T10:52:13.808Z,22.98
2018-08-28T10:54:43.092Z,23.22
2018-08-28T10:57:13.200Z,22.93
2018-08-28T10:59:42.397Z,23.26
2018-08-28T11:02:11.640Z,23.29
2018-08-28T11:04:40.884Z,23.40
2018-08-28T11:07:10.972Z,23.71
2018-08-28T11:09:40.747Z,24.05
2018-08-28T11:12:09.938Z,24.13
2018-08-28T11:14:39.219Z,24.34
2018-08-28T11:17:08.435Z,24.41
2018-08-28T11:19:37.644Z,24.04
2018-08-28T11:22:06.814Z,23.78
2018-08-28T11:24:36.065Z,23.84
2018-08-28T11:27:05.255Z,23.77
2018-08-28T11:29:34.549Z,23.91
2018-08-28T11:32:03.809Z,23.86
2018-08-28T11:34:33.260Z,23.95
2018-08-28T11:37:02.466Z,24.04
2018-08-28T11:39:31.666Z,23.91
2018-08-28T11:42:00.914Z,23.94
2018-08-28T11:44:30.148Z,23.84
2018-08-28T11:46:59.445Z,23.73
2018-08-28T11:49:28.592Z,24.09
2018-08-28T11:51:57.817Z,24.21
2018-08-28T11:54:27.060Z,23.98
2018-08-28T11:56:56.304Z,23.91
2018-08-28T11:59:25.732Z,24.09
2018-08-28T12:01:55.678Z,23.79
2018-08-28T12:04:24.881Z,24.02
2018-08-28T12:06:54.143Z,23.88
2018-08-28T12:09:23.319Z,23.56
2018-08-28T12:11:53.446Z,23.59
2018-08-28T12:14:22.685Z,23.90
2018-08-28T12:16:51.958Z,23.88
2018-08-28T12:19:21.155Z,23.91
2018-08-28T12:21:50.362Z,24.00
2018-08-28T12:24:19.723Z,23.87
2018-08-28T12:26:49.129Z,24.17
2018-08-28T12:29:18.187Z,24.13
2018-08-28T12:31:47.463Z,23.65
2018-08-28T12:34:16.704Z,23.73
2018-08-28T12:36:46.981Z,23.45
2018-08-28T12:39:16.074Z,23.63
2018-08-28T12:41:45.282Z,23.66
2018-08-28T12:44:14.523Z,23.68
2018-08-28T12:46:43.751Z,23.58
2018-08-28T12:49:13.962Z,23.43
2018-08-28T12:51:43.175Z,23.51
2018-08-28T12:54:12.409Z,23.53
2018-08-28T12:56:41.603Z,23.30
2018-08-28T12:59:10.846Z,23.32
2018-08-28T13:01:40.063Z,23.36
2018-08-28T13:04:09.271Z,23.35
2018-08-28T13:06:38.550Z,23.39
2018-08-28T13:09:07.775Z,23.52
2018-08-28T13:11:37.101Z,23.86
2018-08-28T13:14:06.280Z,24.03
2018-08-28T13:16:35.515Z,24.13
2018-08-28T13:19:04.851Z,24.29
2018-08-28T13:21:34.118Z,24.53
2018-08-28T13:24:03.343Z,24.29
2018-08-28T13:26:32.587Z,24.43
2018-08-28T13:29:01.786Z,24.33
2018-08-28T13:31:31.042Z,24.62
2018-08-28T13:34:00.293Z,24.68
2018-08-28T13:36:29.536Z,24.82
2018-08-28T13:38:58.996Z,24.47
2018-08-28T13:41:28.207Z,24.21
2018-08-28T13:43:57.491Z,24.49
2018-08-28T13:46:26.750Z,24.27
2018-08-28T13:48:55.987Z,24.42
2018-08-28T13:51:25.763Z,24.58
2018-08-28T13:53:55.064Z,24.12
2018-08-28T13:56:24.374Z,24.59
2018-08-28T13:58:53.620Z,24.53
2018-08-28T14:01:22.797Z,24.48
2018-08-28T14:03:52.020Z,24.36
2018-08-28T14:06:21.241Z,23.95
2018-08-28T14:08:50.432Z,24.21
2018-08-28T14:11:19.627Z,24.43
2018-08-28T14:13:48.908Z,24.34
2018-08-28T14:16:18.069Z,24.19
2018-08-28T14:18:47.325Z,24.35
2018-08-28T14:21:16.650Z,24.15
2018-08-28T14:23:45.930Z,24.41
2018-08-28T14:26:15.132Z,24.14
2018-08-28T14:28:44.727Z,24.05
2018-08-28T14:31:13.892Z,24.26
2018-08-28T14:33:43.117Z,24.41
2018-08-28T14:36:12.370Z,24.42
2018-08-28T14:38:41.614Z,24.17
2018-08-28T14:41:10.864Z,23.79
2018-08-28T14:43:40.108Z,24.30
2018-08-28T14:46:09.616Z,24.04
2018-08-28T14:48:38.845Z,24.46
2018-08-28T14:51:08.399Z,24.25
2018-08-28T14:53:38.462Z,24.32
2018-08-28T14:56:07.682Z,24.11
2018-08-28T14:58:36.915Z,24.10
2018-08-28T15:01:06.138Z,24.16
2018-08-28T15:03:35.419Z,24.03
2018-08-28T15:06:04.627Z,23.92
2018-08-28T15:08:33.850Z,23.97
2018-08-28T15:11:03.099Z,23.95
2018-08-28T15:13:32.739Z,23.85
2018-08-28T15:16:01.947Z,23.83
2018-08-28T15:18:31.223Z,23.49
2018-08-28T15:21:01.439Z,23.72
2018-08-28T15:23:30.664Z,23.73
2018-08-28T15:25:59.911Z,23.68
2018-08-28T15:28:29.134Z,23.55
2018-08-28T15:30:58.371Z,23.63
2018-08-28T15:33:27.572Z,23.65
2018-08-28T15:35:56.807Z,23.55
2018-08-28T15:38:26.613Z,23.56
2018-08-28T15:40:56.157Z,23.50
2018-08-28T15:43:25.356Z,23.39
2018-08-28T15:45:54.584Z,23.52
2018-08-28T15:48:23.804Z,23.39
2018-08-28T15:50:53.663Z,23.52
2018-08-28T15:53:23.158Z,23.31
2018-08-28T15:55:52.375Z,23.23
2018-08-28T15:58:23.055Z,23.32
2018-08-28T16:00:52.281Z,23.18
2018-08-28T16:03:23.370Z,23.12
2018-08-28T16:05:52.820Z,23.30
2018-08-28T16:08:23.254Z,23.32
2018-08-28T16:10:53.483Z,23.16
2018-08-28T16:13:22.713Z,23.11
2018-08-28T16:15:51.935Z,23.21
2018-08-28T16:18:21.168Z,23.31
2018-08-28T16:20:50.394Z,23.20
2018-08-28T16:23:24.879Z,23.16
2018-08-28T16:25:54.982Z,23.14
2018-08-28T16:28:24.253Z,22.74
2018-08-28T16:30:53.429Z,22.34
2018-08-28T16:33:22.641Z,22.72
2018-08-28T16:35:52.034Z,22.84
2018-08-28T16:38:21.206Z,22.83
2018-08-28T16:40:50.422Z,22.92
2018-08-28T16:43:19.649Z,22.89
2018-08-28T16:45:48.875Z,22.88
2018-08-28T16:48:18.134Z,22.86
2018-08-28T16:50:47.642Z,22.72
2018-08-28T16:53:16.848Z,22.85
2018-08-28T16:55:46.131Z,22.79
2018-08-28T16:58:15.318Z,22.87
2018-08-28T17:00:44.538Z,22.69
2018-08-28T17:03:13.795Z,22.66
2018-08-28T17:05:43.026Z,22.51
2018-08-28T17:08:12.193Z,22.55
2018-08-28T17:10:41.482Z,22.55
2018-08-28T17:13:11.370Z,22.55
2018-08-28T17:15:40.631Z,22.57
2018-08-28T17:18:12.079Z,22.53
2018-08-28T17:20:41.343Z,22.43
2018-08-28T17:23:10.567Z,22.37
2018-08-28T17:25:39.826Z,22.36
2018-08-28T17:28:09.038Z,22.32
2018-08-28T17:30:38.772Z,22.31
2018-08-28T17:33:08.061Z,22.40
2018-08-28T17:35:37.244Z,22.41
2018-08-28T17:38:06.996Z,22.34
2018-08-28T17:40:36.297Z,22.15
2018-08-28T17:43:06.527Z,22.10
2018-08-28T17:45:35.735Z,22.09
2018-08-28T17:48:05.125Z,21.97
2018-08-28T17:50:34.386Z,21.92
2018-08-28T17:53:04.219Z,21.75
2018-08-28T17:55:35.046Z,21.66
2018-08-28T17:58:04.803Z,21.57
2018-08-28T18:00:34.040Z,21.48
2018-08-28T18:03:03.376Z,21.42
2018-08-28T18:05:32.643Z,21.39
2018-08-28T18:08:01.884Z,21.34
2018-08-28T18:10:31.160Z,21.21
2018-08-28T18:13:00.403Z,21.07
2018-08-28T18:15:29.713Z,20.95
2018-08-28T18:17:58.954Z,20.89
2018-08-28T18:20:28.223Z,20.82
2018-08-28T18:22:57.445Z,20.69
2018-08-28T18:25:27.174Z,20.57
2018-08-28T18:27:56.405Z,20.52
2018-08-28T18:30:25.637Z,20.40
2018-08-28T18:32:54.843Z,20.31
2018-08-28T18:35:24.068Z,20.21
2018-08-28T18:37:53.303Z,20.13
2018-08-28T18:40:22.545Z,20.05
2018-08-28T18:42:51.928Z,19.97
2018-08-28T18:45:21.190Z,19.87
2018-08-28T18:47:52.554Z,19.75
2018-08-28T18:50:21.801Z,19.73
2018-08-28T18:52:51.039Z,19.64
2018-08-28T18:55:20.292Z,19.60
2018-08-28T18:57:50.478Z,19.49
2018-08-28T19:00:19.764Z,19.45
2018-08-28T19:02:49.036Z,19.38
2018-08-28T19:05:18.254Z,19.33
2018-08-28T19:07:47.571Z,19.27
2018-08-28T19:10:16.748Z,19.20
2018-08-28T19:12:46.145Z,19.22
2018-08-28T19:15:15.435Z,19.15
2018-08-28T19:17:45.303Z,19.09
2018-08-28T19:20:14.556Z,19.05
2018-08-28T19:22:43.748Z,19.01
2018-08-28T19:25:13.814Z,18.92
2018-08-28T19:27:43.120Z,18.87
2018-08-28T19:30:12.347Z,18.79
2018-08-28T19:32:41.628Z,18.73
2018-08-28T19:35:11.145Z,18.72
2018-08-28T19:37:40.412Z,18.68
2018-08-28T19:40:09.691Z,18.63
2018-08-28T19:42:38.927Z,18.58
2018-08-28T19:45:08.735Z,18.53
2018-08-28T19:47:37.964Z,18.49
2018-08-28T19:50:07.315Z,18.47
2018-08-28T19:52:36.599Z,18.41
2018-08-28T19:55:05.871Z,18.37
2018-08-28T19:57:35.107Z,18.35
2018-08-28T20:00:04.696Z,18.35
2018-08-28T20:02:33.956Z,18.27
2018-08-28T20:05:03.876Z,18.25
2018-08-28T20:07:33.235Z,18.19
2018-08-28T20:10:04.516Z,18.15
2018-08-28T20:12:34.459Z,18.07
2018-08-28T20:15:04.390Z,18.05
2018-08-28T20:17:35.684Z,18.03
2018-08-28T20:20:05.129Z,17.98
2018-08-28T20:22:34.420Z,17.92
2018-08-28T20:25:04.435Z,17.88
2018-08-28T20:27:33.680Z,17.87
2018-08-28T20:30:02.965Z,17.81
2018-08-28T20:32:33.728Z,17.74
2018-08-28T20:35:03.011Z,17.74
2018-08-28T20:37:32.990Z,17.67
2018-08-28T20:40:02.265Z,17.63
2018-08-28T20:42:31.521Z,17.58
2018-08-28T20:45:01.562Z,17.49
2018-08-28T20:47:30.811Z,17.46
2018-08-28T20:50:02.830Z,17.44
2018-08-28T20:52:32.070Z,17.37
2018-08-28T20:55:01.323Z,17.31
2018-08-28T20:57:31.179Z,17.31
2018-08-28T21:00:01.305Z,17.25
2018-08-28T21:02:30.533Z,17.21
2018-08-28T21:04:59.876Z,17.17
2018-08-28T21:07:29.154Z,17.12
2018-08-28T21:09:58.423Z,17.06
2018-08-28T21:12:27.710Z,17.02
2018-08-28T21:14:57.771Z,17.02
2018-08-28T21:17:27.056Z,16.98
2018-08-28T21:19:56.499Z,16.96
2018-08-28T21:22:25.773Z,16.91
2018-08-28T21:24:55.014Z,16.89
2018-08-28T21:27:24.295Z,16.87
2018-08-28T21:29:53.782Z,16.84
2018-08-28T21:32:23.229Z,16.80
2018-08-28T21:34:52.464Z,16.76
2018-08-28T21:37:21.722Z,16.77
2018-08-28T21:39:50.982Z,16.74
2018-08-28T21:42:20.756Z,16.71
2018-08-28T21:44:50.552Z,16.69
2018-08-28T21:47:19.804Z,16.67
2018-08-28T21:49:49.056Z,16.65
2018-08-28T21:52:18.347Z,16.57
2018-08-28T21:54:47.670Z,16.55
2018-08-28T21:57:16.880Z,16.53
2018-08-28T21:59:46.123Z,16.48
2018-08-28T22:02:15.354Z,16.45
2018-08-28T22:04:44.840Z,16.42
2018-08-28T22:07:20.131Z,16.35
2018-08-28T22:09:51.431Z,16.34
2018-08-28T22:12:20.671Z,16.33
2018-08-28T22:14:49.929Z,16.31
2018-08-28T22:17:19.155Z,16.27
2018-08-28T22:19:48.415Z,16.23
2018-08-28T22:22:17.802Z,16.21
2018-08-28T22:24:47.086Z,16.23
2018-08-28T22:27:16.334Z,16.16
2018-08-28T22:29:45.571Z,16.09
2018-08-28T22:32:15.826Z,16.04
2018-08-28T22:34:45.065Z,16.04
2018-08-28T22:37:14.280Z,16.03
2018-08-28T22:39:43.757Z,16.00
2018-08-28T22:42:12.974Z,15.98
2018-08-28T22:44:42.272Z,15.94
2018-08-28T22:47:11.463Z,15.89
2018-08-28T22:49:40.800Z,15.83
2018-08-28T22:52:10.292Z,15.81
2018-08-28T22:54:39.562Z,15.83
2018-08-28T22:57:08.801Z,15.82
2018-08-28T22:59:38.591Z,15.79
2018-08-28T23:02:07.892Z,15.75
2018-08-28T23:04:37.193Z,15.71
2018-08-28T23:07:07.610Z,15.66
2018-08-28T23:09:36.888Z,15.70
2018-08-28T23:12:07.146Z,15.66
2018-08-28T23:14:36.411Z,15.60
2018-08-28T23:17:05.707Z,15.58
2018-08-28T23:19:35.149Z,15.52
2018-08-28T23:22:05.272Z,15.53
2018-08-28T23:24:34.548Z,15.48
2018-08-28T23:27:03.871Z,15.49
2018-08-28T23:29:33.199Z,15.49
2018-08-28T23:32:02.470Z,15.47
2018-08-28T23:34:31.702Z,15.44
2018-08-28T23:37:02.016Z,15.42
2018-08-28T23:39:31.346Z,15.41
2018-08-28T23:42:00.625Z,15.34
2018-08-28T23:44:29.919Z,15.33
2018-08-28T23:46:59.198Z,15.28
2018-08-28T23:49:28.535Z,15.29
2018-08-28T23:51:57.795Z,15.20
2018-08-28T23:54:27.076Z,15.18
2018-08-28T23:56:56.329Z,15.17
2018-08-28T23:59:25.903Z,15.14
